sensor_id;sensor_type;location;lat;lon;timestamp;P1;durP1;ratioP1;P2;durP2;ratioP2
32639;SDS011;19049;52.524;11.468;2024-01-07T00:00:00;10.17;;;4.70;;
32639;SDS011;19049;52.524;11.468;2024-01-07T00:02:26;8.60;;;5.30;;
32639;SDS011;19049;52.524;11.468;2024-01-07T00:04:52;9.60;;;4.83;;
32639;SDS011;19049;52.524;11.468;2024-01-07T00:07:18;8.30;;;4.50;;
32639;SDS011;19049;52.524;11.468;2024-01-07T00:09:45;7.87;;;4.73;;
32639;SDS011;19049;52.524;11.468;2024-01-07T00:12:11;7.00;;;4.50;;
32639;SDS011;19049;52.524;11.468;2024-01-07T00:14:36;10.20;;;5.47;;
32639;SDS011;19049;52.524;11.468;2024-01-07T00:17:02;7.90;;;4.77;;
32639;SDS011;19049;52.524;11.468;2024-01-07T00:19:28;8.03;;;4.97;;
32639;SDS011;19049;52.524;11.468;2024-01-07T00:21:56;9.07;;;5.93;;
32639;SDS011;19049;52.524;11.468;2024-01-07T00:24:21;8.60;;;5.30;;
32639;SDS011;19049;52.524;11.468;2024-01-07T00:26:50;7.60;;;4.97;;
32639;SDS011;19049;52.524;11.468;2024-01-07T00:29:16;10.07;;;5.07;;
32639;SDS011;19049;52.524;11.468;2024-01-07T00:31:41;7.13;;;4.60;;
32639;SDS011;19049;52.524;11.468;2024-01-07T00:34:07;11.10;;;4.97;;
32639;SDS011;19049;52.524;11.468;2024-01-07T00:36:33;6.43;;;3.90;;
32639;SDS011;19049;52.524;11.468;2024-01-07T00:38:58;6.70;;;4.17;;
32639;SDS011;19049;52.524;11.468;2024-01-07T00:41:24;8.97;;;4.50;;
32639;SDS011;19049;52.524;11.468;2024-01-07T00:43:49;9.03;;;4.60;;
32639;SDS011;19049;52.524;11.468;2024-01-07T00:46:15;5.67;;;3.83;;
32639;SDS011;19049;52.524;11.468;2024-01-07T00:48:40;6.40;;;3.70;;
32639;SDS011;19049;52.524;11.468;2024-01-07T00:51:06;8.23;;;4.80;;
32639;SDS011;19049;52.524;11.468;2024-01-07T00:53:32;7.30;;;4.60;;
32639;SDS011;19049;52.524;11.468;2024-01-07T00:55:57;6.80;;;3.73;;
32639;SDS011;19049;52.524;11.468;2024-01-07T00:58:23;6.43;;;3.60;;
32639;SDS011;19049;52.524;11.468;2024-01-07T01:00:48;9.07;;;4.00;;
32639;SDS011;19049;52.524;11.468;2024-01-07T01:03:14;8.87;;;4.03;;
32639;SDS011;19049;52.524;11.468;2024-01-07T01:05:39;5.63;;;3.03;;
32639;SDS011;19049;52.524;11.468;2024-01-07T01:08:05;6.00;;;3.93;;
32639;SDS011;19049;52.524;11.468;2024-01-07T01:10:31;5.90;;;3.40;;
32639;SDS011;19049;52.524;11.468;2024-01-07T01:12:56;5.43;;;3.30;;
32639;SDS011;19049;52.524;11.468;2024-01-07T01:15:22;8.00;;;3.50;;
32639;SDS011;19049;52.524;11.468;2024-01-07T01:17:48;7.17;;;3.63;;
32639;SDS011;19049;52.524;11.468;2024-01-07T01:20:13;5.03;;;3.53;;
32639;SDS011;19049;52.524;11.468;2024-01-07T01:22:39;6.50;;;3.63;;
32639;SDS011;19049;52.524;11.468;2024-01-07T01:25:05;5.43;;;3.50;;
32639;SDS011;19049;52.524;11.468;2024-01-07T01:27:30;4.43;;;3.23;;
32639;SDS011;19049;52.524;11.468;2024-01-07T01:29:56;7.60;;;3.30;;
32639;SDS011;19049;52.524;11.468;2024-01-07T01:32:22;4.43;;;3.00;;
32639;SDS011;19049;52.524;11.468;2024-01-07T01:34:47;6.57;;;3.30;;
32639;SDS011;19049;52.524;11.468;2024-01-07T01:37:13;5.43;;;2.93;;
32639;SDS011;19049;52.524;11.468;2024-01-07T01:39:41;6.37;;;2.80;;
32639;SDS011;19049;52.524;11.468;2024-01-07T01:42:07;5.43;;;2.50;;
32639;SDS011;19049;52.524;11.468;2024-01-07T01:44:33;3.97;;;2.40;;
32639;SDS011;19049;52.524;11.468;2024-01-07T01:46:59;4.67;;;2.60;;
32639;SDS011;19049;52.524;11.468;2024-01-07T01:49:25;4.63;;;2.67;;
32639;SDS011;19049;52.524;11.468;2024-01-07T01:51:52;3.97;;;2.57;;
32639;SDS011;19049;52.524;11.468;2024-01-07T01:54:18;3.80;;;2.23;;
32639;SDS011;19049;52.524;11.468;2024-01-07T01:56:45;4.70;;;2.10;;
32639;SDS011;19049;52.524;11.468;2024-01-07T01:59:11;4.23;;;2.27;;
32639;SDS011;19049;52.524;11.468;2024-01-07T02:01:37;3.10;;;2.00;;
32639;SDS011;19049;52.524;11.468;2024-01-07T02:04:04;4.00;;;2.00;;
32639;SDS011;19049;52.524;11.468;2024-01-07T02:06:29;3.77;;;2.10;;
32639;SDS011;19049;52.524;11.468;2024-01-07T02:08:55;4.97;;;2.33;;
32639;SDS011;19049;52.524;11.468;2024-01-07T02:11:21;3.30;;;1.90;;
32639;SDS011;19049;52.524;11.468;2024-01-07T02:13:48;3.73;;;2.20;;
32639;SDS011;19049;52.524;11.468;2024-01-07T02:16:14;3.70;;;2.10;;
32639;SDS011;19049;52.524;11.468;2024-01-07T02:18:41;4.20;;;2.20;;
32639;SDS011;19049;52.524;11.468;2024-01-07T02:21:08;3.67;;;2.20;;
32639;SDS011;19049;52.524;11.468;2024-01-07T02:23:35;4.77;;;2.20;;
32639;SDS011;19049;52.524;11.468;2024-01-07T02:26:00;6.20;;;2.10;;
32639;SDS011;19049;52.524;11.468;2024-01-07T02:28:26;5.83;;;2.07;;
32639;SDS011;19049;52.524;11.468;2024-01-07T02:30:52;3.00;;;2.10;;
32639;SDS011;19049;52.524;11.468;2024-01-07T02:33:17;4.17;;;2.23;;
32639;SDS011;19049;52.524;11.468;2024-01-07T02:35:43;3.50;;;1.83;;
32639;SDS011;19049;52.524;11.468;2024-01-07T02:38:09;2.70;;;2.00;;
32639;SDS011;19049;52.524;11.468;2024-01-07T02:40:34;5.00;;;2.20;;
32639;SDS011;19049;52.524;11.468;2024-01-07T02:43:00;2.33;;;2.00;;
32639;SDS011;19049;52.524;11.468;2024-01-07T02:45:25;4.73;;;2.20;;
32639;SDS011;19049;52.524;11.468;2024-01-07T02:47:51;2.97;;;2.30;;
32639;SDS011;19049;52.524;11.468;2024-01-07T02:50:16;3.93;;;2.07;;
32639;SDS011;19049;52.524;11.468;2024-01-07T02:52:42;3.73;;;2.23;;
32639;SDS011;19049;52.524;11.468;2024-01-07T02:55:08;4.83;;;2.10;;
32639;SDS011;19049;52.524;11.468;2024-01-07T02:57:34;4.93;;;2.30;;
32639;SDS011;19049;52.524;11.468;2024-01-07T03:00:00;4.50;;;2.40;;
32639;SDS011;19049;52.524;11.468;2024-01-07T03:02:25;3.93;;;2.30;;
32639;SDS011;19049;52.524;11.468;2024-01-07T03:04:51;4.30;;;1.93;;
32639;SDS011;19049;52.524;11.468;2024-01-07T03:07:16;4.17;;;2.20;;
32639;SDS011;19049;52.524;11.468;2024-01-07T03:09:42;3.57;;;1.80;;
32639;SDS011;19049;52.524;11.468;2024-01-07T03:12:08;3.47;;;2.00;;
32639;SDS011;19049;52.524;11.468;2024-01-07T03:14:33;5.90;;;2.07;;
32639;SDS011;19049;52.524;11.468;2024-01-07T03:16:59;3.20;;;2.13;;
32639;SDS011;19049;52.524;11.468;2024-01-07T03:19:25;4.30;;;2.03;;
32639;SDS011;19049;52.524;11.468;2024-01-07T03:21:50;2.73;;;1.53;;
32639;SDS011;19049;52.524;11.468;2024-01-07T03:24:16;3.33;;;1.80;;
32639;SDS011;19049;52.524;11.468;2024-01-07T03:26:41;4.57;;;1.77;;
32639;SDS011;19049;52.524;11.468;2024-01-07T03:29:07;5.47;;;2.13;;
32639;SDS011;19049;52.524;11.468;2024-01-07T03:31:33;4.07;;;2.07;;
32639;SDS011;19049;52.524;11.468;2024-01-07T03:33:58;3.90;;;2.10;;
32639;SDS011;19049;52.524;11.468;2024-01-07T03:36:24;5.03;;;2.37;;
32639;SDS011;19049;52.524;11.468;2024-01-07T03:38:50;3.23;;;2.17;;
32639;SDS011;19049;52.524;11.468;2024-01-07T03:41:16;6.90;;;2.03;;
32639;SDS011;19049;52.524;11.468;2024-01-07T03:43:48;4.60;;;2.20;;
32639;SDS011;19049;52.524;11.468;2024-01-07T03:46:14;2.83;;;2.00;;
32639;SDS011;19049;52.524;11.468;2024-01-07T03:48:43;3.70;;;2.10;;
32639;SDS011;19049;52.524;11.468;2024-01-07T03:51:09;3.72;;;2.53;;
32639;SDS011;19049;52.524;11.468;2024-01-07T03:53:35;4.63;;;2.20;;
32639;SDS011;19049;52.524;11.468;2024-01-07T03:56:01;3.70;;;2.40;;
32639;SDS011;19049;52.524;11.468;2024-01-07T03:58:27;4.63;;;2.10;;
32639;SDS011;19049;52.524;11.468;2024-01-07T04:00:52;3.60;;;2.27;;
32639;SDS011;19049;52.524;11.468;2024-01-07T04:03:18;3.90;;;2.17;;
32639;SDS011;19049;52.524;11.468;2024-01-07T04:05:44;4.43;;;2.63;;
32639;SDS011;19049;52.524;11.468;2024-01-07T04:08:10;3.33;;;1.73;;
32639;SDS011;19049;52.524;11.468;2024-01-07T04:10:37;4.97;;;2.33;;
32639;SDS011;19049;52.524;11.468;2024-01-07T04:13:03;3.87;;;2.30;;
32639;SDS011;19049;52.524;11.468;2024-01-07T04:15:29;3.60;;;2.53;;
32639;SDS011;19049;52.524;11.468;2024-01-07T04:17:54;3.57;;;2.60;;
32639;SDS011;19049;52.524;11.468;2024-01-07T04:20:20;3.10;;;2.20;;
32639;SDS011;19049;52.524;11.468;2024-01-07T04:22:46;3.80;;;2.47;;
32639;SDS011;19049;52.524;11.468;2024-01-07T04:25:11;3.00;;;2.33;;
32639;SDS011;19049;52.524;11.468;2024-01-07T04:27:37;5.20;;;2.70;;
32639;SDS011;19049;52.524;11.468;2024-01-07T04:30:04;4.93;;;2.70;;
32639;SDS011;19049;52.524;11.468;2024-01-07T04:32:30;4.43;;;3.07;;
32639;SDS011;19049;52.524;11.468;2024-01-07T04:34:56;6.07;;;2.90;;
32639;SDS011;19049;52.524;11.468;2024-01-07T04:37:22;5.00;;;3.00;;
32639;SDS011;19049;52.524;11.468;2024-01-07T04:39:51;4.87;;;3.27;;
32639;SDS011;19049;52.524;11.468;2024-01-07T04:42:17;5.87;;;2.70;;
32639;SDS011;19049;52.524;11.468;2024-01-07T04:44:43;3.70;;;2.57;;
32639;SDS011;19049;52.524;11.468;2024-01-07T04:47:28;5.67;;;2.57;;
32639;SDS011;19049;52.524;11.468;2024-01-07T04:49:55;4.90;;;2.45;;
32639;SDS011;19049;52.524;11.468;2024-01-07T04:52:22;4.85;;;3.03;;
32639;SDS011;19049;52.524;11.468;2024-01-07T04:54:48;4.45;;;2.30;;
32639;SDS011;19049;52.524;11.468;2024-01-07T04:57:15;4.85;;;2.97;;
32639;SDS011;19049;52.524;11.468;2024-01-07T04:59:40;4.87;;;3.13;;
32639;SDS011;19049;52.524;11.468;2024-01-07T05:02:06;5.87;;;2.60;;
32639;SDS011;19049;52.524;11.468;2024-01-07T05:04:32;4.90;;;2.90;;
32639;SDS011;19049;52.524;11.468;2024-01-07T05:06:57;5.67;;;3.00;;
32639;SDS011;19049;52.524;11.468;2024-01-07T05:09:23;4.43;;;3.10;;
32639;SDS011;19049;52.524;11.468;2024-01-07T05:11:48;5.73;;;3.50;;
32639;SDS011;19049;52.524;11.468;2024-01-07T05:14:14;7.40;;;2.83;;
32639;SDS011;19049;52.524;11.468;2024-01-07T05:16:40;5.37;;;3.23;;
32639;SDS011;19049;52.524;11.468;2024-01-07T05:19:05;5.83;;;2.97;;
32639;SDS011;19049;52.524;11.468;2024-01-07T05:21:31;5.73;;;2.63;;
32639;SDS011;19049;52.524;11.468;2024-01-07T05:23:56;6.43;;;2.53;;
32639;SDS011;19049;52.524;11.468;2024-01-07T05:26:22;5.83;;;2.90;;
32639;SDS011;19049;52.524;11.468;2024-01-07T05:28:48;5.67;;;3.17;;
32639;SDS011;19049;52.524;11.468;2024-01-07T05:31:17;4.77;;;2.73;;
32639;SDS011;19049;52.524;11.468;2024-01-07T05:33:43;4.38;;;2.67;;
32639;SDS011;19049;52.524;11.468;2024-01-07T05:36:13;6.35;;;3.13;;
32639;SDS011;19049;52.524;11.468;2024-01-07T05:38:41;6.40;;;3.38;;
32639;SDS011;19049;52.524;11.468;2024-01-07T05:41:07;5.13;;;2.30;;
32639;SDS011;19049;52.524;11.468;2024-01-07T05:43:32;4.03;;;2.40;;
32639;SDS011;19049;52.524;11.468;2024-01-07T05:45:58;3.23;;;2.53;;
32639;SDS011;19049;52.524;11.468;2024-01-07T05:48:23;5.53;;;2.63;;
32639;SDS011;19049;52.524;11.468;2024-01-07T05:50:49;3.50;;;2.50;;
32639;SDS011;19049;52.524;11.468;2024-01-07T05:53:17;5.27;;;2.27;;
32639;SDS011;19049;52.524;11.468;2024-01-07T05:55:43;4.87;;;2.50;;
32639;SDS011;19049;52.524;11.468;2024-01-07T05:58:08;4.33;;;2.70;;
32639;SDS011;19049;52.524;11.468;2024-01-07T06:00:35;3.50;;;2.30;;
32639;SDS011;19049;52.524;11.468;2024-01-07T06:03:01;5.13;;;2.33;;
32639;SDS011;19049;52.524;11.468;2024-01-07T06:05:26;3.77;;;2.40;;
32639;SDS011;19049;52.524;11.468;2024-01-07T06:07:52;5.47;;;2.60;;
32639;SDS011;19049;52.524;11.468;2024-01-07T06:10:17;5.30;;;2.97;;
32639;SDS011;19049;52.524;11.468;2024-01-07T06:12:43;5.03;;;2.90;;
32639;SDS011;19049;52.524;11.468;2024-01-07T06:15:09;4.67;;;2.77;;
32639;SDS011;19049;52.524;11.468;2024-01-07T06:17:34;4.27;;;2.90;;
32639;SDS011;19049;52.524;11.468;2024-01-07T06:20:00;3.10;;;2.53;;
32639;SDS011;19049;52.524;11.468;2024-01-07T06:22:26;3.43;;;2.40;;
32639;SDS011;19049;52.524;11.468;2024-01-07T06:24:51;5.27;;;2.97;;
32639;SDS011;19049;52.524;11.468;2024-01-07T06:27:17;3.97;;;2.47;;
32639;SDS011;19049;52.524;11.468;2024-01-07T06:29:42;6.37;;;3.07;;
32639;SDS011;19049;52.524;11.468;2024-01-07T06:32:08;4.17;;;3.17;;
32639;SDS011;19049;52.524;11.468;2024-01-07T06:34:35;5.03;;;3.37;;
32639;SDS011;19049;52.524;11.468;2024-01-07T06:37:01;4.40;;;2.80;;
32639;SDS011;19049;52.524;11.468;2024-01-07T06:39:27;3.17;;;2.20;;
32639;SDS011;19049;52.524;11.468;2024-01-07T06:41:52;3.87;;;2.40;;
32639;SDS011;19049;52.524;11.468;2024-01-07T06:44:18;3.60;;;2.30;;
32639;SDS011;19049;52.524;11.468;2024-01-07T06:46:44;3.87;;;2.27;;
32639;SDS011;19049;52.524;11.468;2024-01-07T06:49:10;4.23;;;2.90;;
32639;SDS011;19049;52.524;11.468;2024-01-07T06:51:36;3.23;;;2.20;;
32639;SDS011;19049;52.524;11.468;2024-01-07T06:54:03;3.77;;;2.60;;
32639;SDS011;19049;52.524;11.468;2024-01-07T06:56:28;4.03;;;2.73;;
32639;SDS011;19049;52.524;11.468;2024-01-07T06:58:54;3.80;;;2.50;;
32639;SDS011;19049;52.524;11.468;2024-01-07T07:01:20;3.23;;;2.03;;
32639;SDS011;19049;52.524;11.468;2024-01-07T07:03:49;5.10;;;2.70;;
32639;SDS011;19049;52.524;11.468;2024-01-07T07:06:15;3.73;;;3.00;;
32639;SDS011;19049;52.524;11.468;2024-01-07T07:08:41;4.83;;;3.07;;
32639;SDS011;19049;52.524;11.468;2024-01-07T07:11:07;3.13;;;2.43;;
32639;SDS011;19049;52.524;11.468;2024-01-07T07:13:32;4.57;;;2.43;;
32639;SDS011;19049;52.524;11.468;2024-01-07T07:15:58;5.47;;;2.93;;
32639;SDS011;19049;52.524;11.468;2024-01-07T07:18:24;4.60;;;2.90;;
32639;SDS011;19049;52.524;11.468;2024-01-07T07:20:50;4.83;;;2.90;;
32639;SDS011;19049;52.524;11.468;2024-01-07T07:23:16;4.60;;;3.10;;
32639;SDS011;19049;52.524;11.468;2024-01-07T07:25:42;4.03;;;2.63;;
32639;SDS011;19049;52.524;11.468;2024-01-07T07:28:07;3.93;;;2.70;;
32639;SDS011;19049;52.524;11.468;2024-01-07T07:30:33;4.57;;;2.90;;
32639;SDS011;19049;52.524;11.468;2024-01-07T07:32:58;6.07;;;2.97;;
32639;SDS011;19049;52.524;11.468;2024-01-07T07:35:24;5.40;;;2.83;;
32639;SDS011;19049;52.524;11.468;2024-01-07T07:37:50;3.37;;;2.53;;
32639;SDS011;19049;52.524;11.468;2024-01-07T07:40:15;5.30;;;3.03;;
32639;SDS011;19049;52.524;11.468;2024-01-07T07:42:41;4.67;;;2.63;;
32639;SDS011;19049;52.524;11.468;2024-01-07T07:45:07;3.77;;;2.27;;
32639;SDS011;19049;52.524;11.468;2024-01-07T07:47:32;3.90;;;2.30;;
32639;SDS011;19049;52.524;11.468;2024-01-07T07:49:58;3.50;;;2.60;;
32639;SDS011;19049;52.524;11.468;2024-01-07T07:52:24;2.90;;;2.10;;
32639;SDS011;19049;52.524;11.468;2024-01-07T07:54:53;2.97;;;2.30;;
32639;SDS011;19049;52.524;11.468;2024-01-07T07:57:19;3.27;;;2.00;;
32639;SDS011;19049;52.524;11.468;2024-01-07T07:59:46;2.57;;;1.93;;
32639;SDS011;19049;52.524;11.468;2024-01-07T08:02:15;2.90;;;1.93;;
32639;SDS011;19049;52.524;11.468;2024-01-07T08:04:41;3.57;;;2.13;;
32639;SDS011;19049;52.524;11.468;2024-01-07T08:07:07;2.93;;;2.07;;
32639;SDS011;19049;52.524;11.468;2024-01-07T08:09:33;3.53;;;2.43;;
32639;SDS011;19049;52.524;11.468;2024-01-07T08:12:02;2.00;;;1.77;;
32639;SDS011;19049;52.524;11.468;2024-01-07T08:14:28;2.00;;;1.57;;
32639;SDS011;19049;52.524;11.468;2024-01-07T08:16:54;2.33;;;1.70;;
32639;SDS011;19049;52.524;11.468;2024-01-07T08:19:20;5.67;;;2.50;;
32639;SDS011;19049;52.524;11.468;2024-01-07T08:21:46;2.97;;;2.00;;
32639;SDS011;19049;52.524;11.468;2024-01-07T08:24:11;3.10;;;2.60;;
32639;SDS011;19049;52.524;11.468;2024-01-07T08:26:37;3.10;;;2.20;;
32639;SDS011;19049;52.524;11.468;2024-01-07T08:29:03;3.17;;;2.10;;
32639;SDS011;19049;52.524;11.468;2024-01-07T08:31:28;3.53;;;2.40;;
32639;SDS011;19049;52.524;11.468;2024-01-07T08:33:55;3.03;;;2.00;;
32639;SDS011;19049;52.524;11.468;2024-01-07T08:36:21;2.60;;;2.00;;
32639;SDS011;19049;52.524;11.468;2024-01-07T08:38:46;3.20;;;1.83;;
32639;SDS011;19049;52.524;11.468;2024-01-07T08:41:14;3.10;;;2.23;;
32639;SDS011;19049;52.524;11.468;2024-01-07T08:43:41;5.10;;;2.80;;
32639;SDS011;19049;52.524;11.468;2024-01-07T08:46:06;3.97;;;2.80;;
32639;SDS011;19049;52.524;11.468;2024-01-07T08:48:32;4.93;;;3.07;;
32639;SDS011;19049;52.524;11.468;2024-01-07T08:50:58;3.90;;;3.10;;
32639;SDS011;19049;52.524;11.468;2024-01-07T08:53:24;4.00;;;3.03;;
32639;SDS011;19049;52.524;11.468;2024-01-07T08:55:49;2.80;;;2.37;;
32639;SDS011;19049;52.524;11.468;2024-01-07T08:58:15;2.87;;;2.30;;
32639;SDS011;19049;52.524;11.468;2024-01-07T09:00:42;3.90;;;2.07;;
32639;SDS011;19049;52.524;11.468;2024-01-07T09:03:08;3.37;;;2.50;;
32639;SDS011;19049;52.524;11.468;2024-01-07T09:05:34;3.70;;;2.13;;
32639;SDS011;19049;52.524;11.468;2024-01-07T09:07:59;4.67;;;2.70;;
32639;SDS011;19049;52.524;11.468;2024-01-07T09:10:26;2.63;;;1.97;;
32639;SDS011;19049;52.524;11.468;2024-01-07T09:12:51;3.93;;;3.43;;
32639;SDS011;19049;52.524;11.468;2024-01-07T09:15:18;3.13;;;2.80;;
32639;SDS011;19049;52.524;11.468;2024-01-07T09:17:45;3.80;;;2.70;;
32639;SDS011;19049;52.524;11.468;2024-01-07T09:20:11;4.63;;;2.80;;
32639;SDS011;19049;52.524;11.468;2024-01-07T09:22:37;5.27;;;3.47;;
32639;SDS011;19049;52.524;11.468;2024-01-07T09:25:03;3.63;;;3.07;;
32639;SDS011;19049;52.524;11.468;2024-01-07T09:27:29;4.53;;;2.60;;
32639;SDS011;19049;52.524;11.468;2024-01-07T09:29:55;3.10;;;2.47;;
32639;SDS011;19049;52.524;11.468;2024-01-07T09:32:21;2.63;;;2.07;;
32639;SDS011;19049;52.524;11.468;2024-01-07T09:34:47;2.63;;;2.43;;
32639;SDS011;19049;52.524;11.468;2024-01-07T09:37:12;3.50;;;2.03;;
32639;SDS011;19049;52.524;11.468;2024-01-07T09:39:42;3.00;;;1.97;;
32639;SDS011;19049;52.524;11.468;2024-01-07T09:42:11;4.03;;;2.23;;
32639;SDS011;19049;52.524;11.468;2024-01-07T09:44:41;2.97;;;2.13;;
32639;SDS011;19049;52.524;11.468;2024-01-07T09:47:10;3.43;;;2.53;;
32639;SDS011;19049;52.524;11.468;2024-01-07T09:49:36;3.47;;;2.40;;
32639;SDS011;19049;52.524;11.468;2024-01-07T09:52:03;3.43;;;2.03;;
32639;SDS011;19049;52.524;11.468;2024-01-07T09:54:29;2.97;;;2.20;;
32639;SDS011;19049;52.524;11.468;2024-01-07T09:56:59;2.67;;;1.87;;
32639;SDS011;19049;52.524;11.468;2024-01-07T09:59:29;3.70;;;3.00;;
32639;SDS011;19049;52.524;11.468;2024-01-07T10:01:56;2.73;;;2.27;;
32639;SDS011;19049;52.524;11.468;2024-01-07T10:04:22;2.83;;;2.53;;
32639;SDS011;19049;52.524;11.468;2024-01-07T10:06:49;3.30;;;2.60;;
32639;SDS011;19049;52.524;11.468;2024-01-07T10:09:15;4.30;;;3.40;;
32639;SDS011;19049;52.524;11.468;2024-01-07T10:11:42;3.10;;;2.40;;
32639;SDS011;19049;52.524;11.468;2024-01-07T10:14:09;2.63;;;2.00;;
32639;SDS011;19049;52.524;11.468;2024-01-07T10:16:35;3.17;;;2.13;;
32639;SDS011;19049;52.524;11.468;2024-01-07T10:19:01;4.10;;;2.83;;
32639;SDS011;19049;52.524;11.468;2024-01-07T10:21:26;2.00;;;1.80;;
32639;SDS011;19049;52.524;11.468;2024-01-07T10:24:08;3.33;;;2.47;;
32639;SDS011;19049;52.524;11.468;2024-01-07T10:26:38;4.37;;;2.00;;
32639;SDS011;19049;52.524;11.468;2024-01-07T10:29:05;3.40;;;2.23;;
32639;SDS011;19049;52.524;11.468;2024-01-07T10:31:31;4.03;;;2.90;;
32639;SDS011;19049;52.524;11.468;2024-01-07T10:33:57;3.57;;;2.57;;
32639;SDS011;19049;52.524;11.468;2024-01-07T10:36:24;2.03;;;1.83;;
32639;SDS011;19049;52.524;11.468;2024-01-07T10:38:50;4.03;;;2.30;;
32639;SDS011;19049;52.524;11.468;2024-01-07T10:41:19;4.03;;;2.37;;
32639;SDS011;19049;52.524;11.468;2024-01-07T10:43:46;4.67;;;3.03;;
32639;SDS011;19049;52.524;11.468;2024-01-07T10:46:13;2.83;;;2.50;;
32639;SDS011;19049;52.524;11.468;2024-01-07T10:48:43;4.03;;;2.30;;
32639;SDS011;19049;52.524;11.468;2024-01-07T10:51:34;3.70;;;2.20;;
32639;SDS011;19049;52.524;11.468;2024-01-07T10:54:00;4.27;;;2.93;;
32639;SDS011;19049;52.524;11.468;2024-01-07T10:56:31;3.63;;;2.27;;
32639;SDS011;19049;52.524;11.468;2024-01-07T10:59:03;4.13;;;2.43;;
32639;SDS011;19049;52.524;11.468;2024-01-07T11:01:29;4.43;;;2.20;;
32639;SDS011;19049;52.524;11.468;2024-01-07T11:04:06;2.23;;;1.83;;
32639;SDS011;19049;52.524;11.468;2024-01-07T11:09:42;3.17;;;2.13;;
32639;SDS011;19049;52.524;11.468;2024-01-07T11:12:12;3.43;;;2.13;;
32639;SDS011;19049;52.524;11.468;2024-01-07T11:14:38;2.70;;;2.07;;
32639;SDS011;19049;52.524;11.468;2024-01-07T11:17:10;3.67;;;2.13;;
32639;SDS011;19049;52.524;11.468;2024-01-07T11:19:36;5.07;;;2.60;;
32639;SDS011;19049;52.524;11.468;2024-01-07T11:22:20;2.97;;;2.13;;
32639;SDS011;19049;52.524;11.468;2024-01-07T11:24:50;3.30;;;2.10;;
32639;SDS011;19049;52.524;11.468;2024-01-07T11:27:16;2.73;;;2.03;;
32639;SDS011;19049;52.524;11.468;2024-01-07T11:29:42;3.33;;;1.93;;
32639;SDS011;19049;52.524;11.468;2024-01-07T11:32:08;3.93;;;2.40;;
32639;SDS011;19049;52.524;11.468;2024-01-07T11:34:39;3.27;;;2.20;;
32639;SDS011;19049;52.524;11.468;2024-01-07T11:37:12;4.73;;;2.30;;
32639;SDS011;19049;52.524;11.468;2024-01-07T11:39:48;2.77;;;2.27;;
32639;SDS011;19049;52.524;11.468;2024-01-07T11:42:16;5.00;;;3.00;;
32639;SDS011;19049;52.524;11.468;2024-01-07T11:44:50;3.57;;;2.50;;
32639;SDS011;19049;52.524;11.468;2024-01-07T11:47:18;3.90;;;2.30;;
32639;SDS011;19049;52.524;11.468;2024-01-07T11:49:45;3.63;;;2.63;;
32639;SDS011;19049;52.524;11.468;2024-01-07T11:52:11;5.10;;;2.40;;
32639;SDS011;19049;52.524;11.468;2024-01-07T11:54:37;4.00;;;2.67;;
32639;SDS011;19049;52.524;11.468;2024-01-07T11:57:04;5.53;;;3.50;;
32639;SDS011;19049;52.524;11.468;2024-01-07T11:59:30;3.83;;;2.47;;
32639;SDS011;19049;52.524;11.468;2024-01-07T12:01:55;3.03;;;2.23;;
32639;SDS011;19049;52.524;11.468;2024-01-07T12:04:21;2.83;;;2.17;;
32639;SDS011;19049;52.524;11.468;2024-01-07T12:06:47;2.90;;;2.07;;
32639;SDS011;19049;52.524;11.468;2024-01-07T12:09:13;3.83;;;2.57;;
32639;SDS011;19049;52.524;11.468;2024-01-07T12:11:39;3.37;;;2.60;;
32639;SDS011;19049;52.524;11.468;2024-01-07T12:14:06;3.90;;;2.20;;
32639;SDS011;19049;52.524;11.468;2024-01-07T12:16:33;4.10;;;2.23;;
32639;SDS011;19049;52.524;11.468;2024-01-07T12:18:59;4.57;;;2.53;;
32639;SDS011;19049;52.524;11.468;2024-01-07T12:21:25;4.17;;;3.33;;
32639;SDS011;19049;52.524;11.468;2024-01-07T12:23:52;6.63;;;3.30;;
32639;SDS011;19049;52.524;11.468;2024-01-07T12:26:19;5.00;;;3.10;;
32639;SDS011;19049;52.524;11.468;2024-01-07T12:28:51;3.80;;;2.30;;
32639;SDS011;19049;52.524;11.468;2024-01-07T12:31:22;4.37;;;2.70;;
32639;SDS011;19049;52.524;11.468;2024-01-07T12:33:48;7.27;;;5.00;;
32639;SDS011;19049;52.524;11.468;2024-01-07T12:36:14;6.30;;;4.50;;
32639;SDS011;19049;52.524;11.468;2024-01-07T12:38:40;6.43;;;3.53;;
32639;SDS011;19049;52.524;11.468;2024-01-07T12:41:06;4.33;;;2.63;;
32639;SDS011;19049;52.524;11.468;2024-01-07T12:43:32;3.90;;;2.87;;
32639;SDS011;19049;52.524;11.468;2024-01-07T12:45:58;5.50;;;2.97;;
32639;SDS011;19049;52.524;11.468;2024-01-07T12:48:29;2.87;;;2.00;;
32639;SDS011;19049;52.524;11.468;2024-01-07T12:50:55;4.17;;;2.67;;
32639;SDS011;19049;52.524;11.468;2024-01-07T12:53:21;4.77;;;3.43;;
32639;SDS011;19049;52.524;11.468;2024-01-07T12:55:47;4.00;;;3.20;;
32639;SDS011;19049;52.524;11.468;2024-01-07T12:58:13;6.93;;;3.80;;
32639;SDS011;19049;52.524;11.468;2024-01-07T13:00:38;4.47;;;3.20;;
32639;SDS011;19049;52.524;11.468;2024-01-07T13:03:05;5.23;;;2.80;;
32639;SDS011;19049;52.524;11.468;2024-01-07T13:05:32;4.23;;;2.63;;
32639;SDS011;19049;52.524;11.468;2024-01-07T13:07:58;5.07;;;2.73;;
32639;SDS011;19049;52.524;11.468;2024-01-07T13:10:25;4.53;;;2.93;;
32639;SDS011;19049;52.524;11.468;2024-01-07T13:12:50;3.90;;;2.70;;
32639;SDS011;19049;52.524;11.468;2024-01-07T13:15:16;4.23;;;2.90;;
32639;SDS011;19049;52.524;11.468;2024-01-07T13:17:42;4.07;;;2.50;;
32639;SDS011;19049;52.524;11.468;2024-01-07T13:20:08;7.70;;;3.53;;
32639;SDS011;19049;52.524;11.468;2024-01-07T13:22:36;5.40;;;2.60;;
32639;SDS011;19049;52.524;11.468;2024-01-07T13:25:03;6.17;;;4.00;;
32639;SDS011;19049;52.524;11.468;2024-01-07T13:27:30;6.27;;;3.80;;
32639;SDS011;19049;52.524;11.468;2024-01-07T13:29:55;4.13;;;3.27;;
32639;SDS011;19049;52.524;11.468;2024-01-07T13:32:21;4.80;;;3.43;;
32639;SDS011;19049;52.524;11.468;2024-01-07T13:34:47;9.20;;;4.23;;
32639;SDS011;19049;52.524;11.468;2024-01-07T13:37:13;5.00;;;3.73;;
32639;SDS011;19049;52.524;11.468;2024-01-07T13:39:39;6.23;;;3.80;;
32639;SDS011;19049;52.524;11.468;2024-01-07T13:42:04;4.90;;;3.07;;
32639;SDS011;19049;52.524;11.468;2024-01-07T13:44:30;3.70;;;2.80;;
32639;SDS011;19049;52.524;11.468;2024-01-07T13:46:56;5.83;;;2.77;;
32639;SDS011;19049;52.524;11.468;2024-01-07T13:49:21;5.23;;;2.33;;
32639;SDS011;19049;52.524;11.468;2024-01-07T13:51:47;3.77;;;2.33;;
32639;SDS011;19049;52.524;11.468;2024-01-07T13:54:13;4.33;;;2.50;;
32639;SDS011;19049;52.524;11.468;2024-01-07T13:56:46;3.07;;;2.17;;
32639;SDS011;19049;52.524;11.468;2024-01-07T13:59:11;6.07;;;3.07;;
32639;SDS011;19049;52.524;11.468;2024-01-07T14:01:37;4.27;;;2.47;;
32639;SDS011;19049;52.524;11.468;2024-01-07T14:04:04;3.00;;;2.33;;
32639;SDS011;19049;52.524;11.468;2024-01-07T14:06:30;5.17;;;2.40;;
32639;SDS011;19049;52.524;11.468;2024-01-07T14:08:55;3.67;;;2.40;;
32639;SDS011;19049;52.524;11.468;2024-01-07T14:11:21;3.53;;;2.10;;
32639;SDS011;19049;52.524;11.468;2024-01-07T14:13:47;4.70;;;2.37;;
32639;SDS011;19049;52.524;11.468;2024-01-07T14:16:13;3.67;;;1.90;;
32639;SDS011;19049;52.524;11.468;2024-01-07T14:18:39;3.43;;;2.30;;
32639;SDS011;19049;52.524;11.468;2024-01-07T14:21:04;3.60;;;2.20;;
32639;SDS011;19049;52.524;11.468;2024-01-07T14:23:30;4.43;;;2.10;;
32639;SDS011;19049;52.524;11.468;2024-01-07T14:25:57;5.93;;;2.17;;
32639;SDS011;19049;52.524;11.468;2024-01-07T14:28:23;3.73;;;2.07;;
32639;SDS011;19049;52.524;11.468;2024-01-07T14:30:49;3.20;;;2.13;;